Time;durP1;ratioP1;P1;durP2;ratioP2;P2;SDS_P1;SDS_P2;PMS_P1;PMS_P2;Temp;Humidity;BMP_temperature;BMP_pressure;BME280_temperature;BME280_humidity;BME280_pressure;Samples;Min_cycle;Max_cycle;Signal;HPM_P1;HPM_P2
2022/07/04 00:00:43;;;;;;;;;;;;;;;;;;5147095;27;20050;-74
2022/07/04 00:03:09;;;;;;;13.10;6.28;;;;;;;;;;5150993;27;20010;-74
2022/07/04 00:05:35;;;;;;;19.75;6.40;;;;;;;;;;5151221;27;20070;-74
2022/07/04 00:08:01;;;;;;;14.32;6.03;;;;;;;;;;5140315;27;20087;-74
2022/07/04 00:10:27;;;;;;;11.15;5.70;;;;;;;;;;5133857;27;20055;-74
2022/07/04 00:12:54;;;;;;;13.95;6.40;;;;;;;;;;5148387;27;20038;-73
2022/07/04 00:15:20;;;;;;;13.48;6.00;;;;;;;;;;5147445;27;20044;-75
2022/07/04 00:17:46;;;;;;;;;;;;;;;;;;5151479;27;20118;-75
2022/07/04 00:20:12;;;;;;;13.93;6.00;;;;;;;;;;5150330;27;20331;-74
2022/07/04 00:22:38;;;;;;;14.27;5.90;;;;;;;;;;5147547;27;20050;-72
2022/07/04 00:25:04;;;;;;;;;;;;;;;;;;5127718;27;20139;-72
2022/07/04 00:27:31;;;;;;;14.85;6.43;;;;;;;;;;5131045;27;19919;-73
2022/07/04 00:29:57;;;;;;;14.02;6.70;;;;;;;;;;5131490;27;20494;-71
2022/07/04 00:32:23;;;;;;;14.88;7.55;;;;;;;;;;5145326;27;20041;-71
2022/07/04 00:34:49;;;;;;;15.70;6.32;;;;;;;;;;5131431;27;20499;-71
2022/07/04 00:37:15;;;;;;;15.35;6.50;;;;;;;;;;5150271;27;20626;-73
2022/07/04 00:39:42;;;;;;;11.52;6.30;;;;;;;;;;5151279;27;20050;-73
2022/07/04 00:42:08;;;;;;;14.75;6.20;;;;;;;;;;5112361;27;20070;-73
2022/07/04 00:44:36;;;;;;;;;;;;;;;;;;5143626;27;20074;-73
2022/07/04 00:47:06;;;;;;;13.32;6.78;;;;;;;;;;5146572;27;19922;-73
2022/07/04 00:49:32;;;;;;;15.00;6.82;;;;;;;;;;5147752;27;20458;-72
2022/07/04 00:51:59;;;;;;;16.15;6.65;;;;;;;;;;5146429;27;20050;-72
2022/07/04 00:54:26;;;;;;;;;;;;;;;;;;5147622;27;20162;-73
2022/07/04 00:56:52;;;;;;;15.95;6.63;;;;;;;;;;5149154;27;19965;-72
2022/07/04 00:59:18;;;;;;;;;;;;;;;;;;5149398;27;20151;-74
2022/07/04 01:01:44;;;;;;;14.23;6.15;;;;;;;;;;5149160;27;20022;-73
2022/07/04 01:04:10;;;;;;;14.88;6.85;;;;;;;;;;5146475;27;20102;-73
2022/07/04 01:06:37;;;;;;;13.65;6.90;;;;;;;;;;5144394;27;20054;-73
2022/07/04 01:09:03;;;;;;;14.60;6.75;;;;;;;;;;5129588;27;20056;-71
2022/07/04 01:11:29;;;;;;;17.30;6.50;;;;;;;;;;5130092;27;20189;-73
2022/07/04 01:13:56;;;;;;;13.32;6.60;;;;;;;;;;5130198;27;20061;-74
2022/07/04 01:16:24;;;;;;;12.60;6.43;;;;;;;;;;5139663;27;20595;-74
2022/07/04 01:18:51;;;;;;;15.73;7.15;;;;;;;;;;5144405;27;20038;-72
2022/07/04 01:21:18;;;;;;;11.65;6.65;;;;;;;;;;5149245;27;20168;-72
2022/07/04 01:23:44;;;;;;;16.20;6.60;;;;;;;;;;5134685;27;20038;-73
2022/07/04 01:26:10;;;;;;;16.60;7.07;;;;;;;;;;5133105;27;20129;-72
2022/07/04 01:28:37;;;;;;;13.13;7.07;;;;;;;;;;5147522;27;20115;-73
2022/07/04 01:31:03;;;;;;;16.83;7.10;;;;;;;;;;5136565;27;20365;-73
2022/07/04 01:33:29;;;;;;;16.17;6.65;;;;;;;;;;5149478;27;20038;-73
2022/07/04 01:35:55;;;;;;;14.48;6.75;;;;;;;;;;5147288;27;20038;-72
2022/07/04 01:38:21;;;;;;;14.43;6.78;;;;;;;;;;5148660;27;20039;-73
2022/07/04 01:40:47;;;;;;;14.43;6.45;;;;;;;;;;5150380;27;20315;-73
2022/07/04 01:43:13;;;;;;;13.55;6.75;;;;;;;;;;5111025;27;20090;-72
2022/07/04 01:45:39;;;;;;;14.88;6.55;;;;;;;;;;5121466;27;20209;-72
2022/07/04 01:48:06;;;;;;;15.45;6.60;;;;;;;;;;5148206;27;20050;-74
2022/07/04 01:50:32;;;;;;;15.40;6.88;;;;;;;;;;5144785;27;20039;-71
2022/07/04 01:53:00;;;;;;;15.93;7.30;;;;;;;;;;5145520;27;20107;-72
2022/07/04 01:55:26;;;;;;;;;;;;;;;;;;5147221;27;20062;-72
2022/07/04 01:57:52;;;;;;;13.50;7.75;;;;;;;;;;5146005;27;19931;-73
2022/07/04 02:03:03;;;;;;;14.82;7.78;;;;;;;;;;5149054;27;20046;-73
2022/07/04 02:05:29;;;;;;;12.55;7.00;;;;;;;;;;5149163;27;20122;-73
2022/07/04 02:07:55;;;;;;;13.65;8.10;;;;;;;;;;5145228;27;20047;-73
2022/07/04 02:10:21;;;;;;;16.52;7.07;;;;;;;;;;5147696;27;20423;-73
2022/07/04 02:13:03;;;;;;;17.10;8.02;;;;;;;;;;5148982;27;20118;-73
2022/07/04 02:15:29;;;;;;;15.35;7.35;;;;;;;;;;5148059;27;20384;-73
2022/07/04 02:17:55;;;;;;;14.68;7.82;;;;;;;;;;5140151;27;20058;-73
2022/07/04 02:20:22;;;;;;;13.45;7.00;;;;;;;;;;5141245;27;20121;-72
2022/07/04 02:22:48;;;;;;;14.43;8.15;;;;;;;;;;5139266;27;20443;-73
2022/07/04 02:25:14;;;;;;;15.95;7.63;;;;;;;;;;5149429;27;20470;-71
2022/07/04 02:27:40;;;;;;;15.10;7.90;;;;;;;;;;5143366;27;20122;-73
2022/07/04 02:30:06;;;;;;;17.25;8.82;;;;;;;;;;5148270;27;20119;-73
2022/07/04 02:32:32;;;;;;;18.20;8.90;;;;;;;;;;5146133;27;20076;-74
2022/07/04 02:34:58;;;;;;;15.40;8.98;;;;;;;;;;5149957;27;20039;-73
2022/07/04 02:37:24;;;;;;;16.90;9.00;;;;;;;;;;5146225;27;20088;-73
2022/07/04 02:39:51;;;;;;;16.42;8.52;;;;;;;;;;5146765;27;20114;-79
2022/07/04 02:42:17;;;;;;;18.00;8.70;;;;;;;;;;5147144;27;20418;-72
2022/07/04 02:44:44;;;;;;;14.10;8.60;;;;;;;;;;5149689;27;20436;-72
2022/07/04 02:47:10;;;;;;;14.75;8.32;;;;;;;;;;5153945;27;20075;-74
2022/07/04 02:49:36;;;;;;;;;;;;;;;;;;5151659;27;20189;-74
2022/07/04 02:52:02;;;;;;;16.20;9.00;;;;;;;;;;5150405;27;20005;-73
2022/07/04 02:54:28;;;;;;;17.67;10.10;;;;;;;;;;5152089;27;20073;-73
2022/07/04 02:56:54;;;;;;;16.73;9.48;;;;;;;;;;5150970;27;20094;-73
2022/07/04 02:59:20;;;;;;;17.15;9.57;;;;;;;;;;5151599;27;20339;-72
2022/07/04 03:01:46;;;;;;;20.88;9.93;;;;;;;;;;5146438;27;20465;-73
2022/07/04 03:04:12;;;;;;;18.13;10.63;;;;;;;;;;5153503;27;20043;-73
2022/07/04 03:06:39;;;;;;;16.15;10.57;;;;;;;;;;5133244;27;20288;-75
2022/07/04 03:09:06;;;;;;;16.23;10.75;;;;;;;;;;5132910;27;20187;-72
2022/07/04 03:11:32;;;;;;;16.40;10.93;;;;;;;;;;5150797;27;20528;-73
2022/07/04 03:13:58;;;;;;;14.90;9.23;;;;;;;;;;5131940;27;20089;-74
2022/07/04 03:16:24;;;;;;;18.63;10.38;;;;;;;;;;5145316;27;20098;-73
2022/07/04 03:18:50;;;;;;;20.33;11.63;;;;;;;;;;5132518;27;20043;-72
2022/07/04 03:21:16;;;;;;;20.15;11.60;;;;;;;;;;5125807;27;20031;-73
2022/07/04 03:23:42;;;;;;;17.45;11.50;;;;;;;;;;5141325;27;20034;-73
2022/07/04 03:26:09;;;;;;;17.40;11.38;;;;;;;;;;5131136;27;20077;-73
2022/07/04 03:28:35;;;;;;;;;;;;;;;;;;5131396;27;20126;-73
2022/07/04 03:31:01;;;;;;;17.08;11.10;;;;;;;;;;5148542;27;20001;-73
2022/07/04 03:33:27;;;;;;;;;;;;;;;;;;5149277;27;20425;-73
2022/07/04 03:35:53;;;;;;;16.00;10.55;;;;;;;;;;5147943;27;20040;-74
2022/07/04 03:38:19;;;;;;;19.92;11.75;;;;;;;;;;5151973;27;20474;-74
2022/07/04 03:40:45;;;;;;;19.38;10.55;;;;;;;;;;5147144;27;20462;-72
2022/07/04 03:43:11;;;;;;;17.92;10.77;;;;;;;;;;5151329;27;20511;-74
2022/07/04 03:45:37;;;;;;;19.67;11.57;;;;;;;;;;5149233;27;20474;-73
2022/07/04 03:48:03;;;;;;;18.38;10.63;;;;;;;;;;5135682;27;20054;-75
2022/07/04 03:50:30;;;;;;;17.17;10.52;;;;;;;;;;5147070;27;20471;-73
2022/07/04 03:52:56;;;;;;;;;;;;;;;;;;5148078;27;20458;-75
2022/07/04 03:55:22;;;;;;;19.20;12.35;;;;;;;;;;5149162;27;19969;-74
2022/07/04 03:57:48;;;;;;;18.38;10.00;;;;;;;;;;5148197;27;20099;-76
2022/07/04 04:00:14;;;;;;;19.45;11.25;;;;;;;;;;5144254;27;20039;-73
2022/07/04 04:02:40;;;;;;;;;;;;;;;;;;5130743;27;20085;-75
2022/07/04 04:07:51;;;;;;;17.77;10.88;;;;;;;;;;5149803;27;20118;-74
2022/07/04 04:10:18;;;;;;;17.75;10.20;;;;;;;;;;5148068;27;20069;-80
2022/07/04 04:12:44;;;;;;;19.10;11.00;;;;;;;;;;5127798;27;20332;-73
2022/07/04 04:15:10;;;;;;;17.00;10.18;;;;;;;;;;5147704;27;20534;-81
2022/07/04 04:17:36;;;;;;;20.05;11.02;;;;;;;;;;5149251;27;20050;-74
2022/07/04 04:20:02;;;;;;;19.02;11.32;;;;;;;;;;5150206;27;20118;-72
2022/07/04 04:22:28;;;;;;;;;;;;;;;;;;5139746;27;20553;-73
2022/07/04 04:24:54;;;;;;;22.00;11.45;;;;;;;;;;5147521;27;20069;-73
2022/07/04 04:27:20;;;;;;;19.80;11.75;;;;;;;;;;5141686;27;20407;-73
2022/07/04 04:29:46;;;;;;;15.95;10.82;;;;;;;;;;5144642;27;20358;-74
2022/07/04 04:32:12;;;;;;;;;;;;;;;;;;5141639;27;20042;-77
2022/07/04 04:34:38;;;;;;;19.58;10.80;;;;;;;;;;5150180;27;20333;-78
2022/07/04 04:37:04;;;;;;;21.55;10.85;;;;;;;;;;5146261;27;20100;-75
2022/07/04 04:39:30;;;;;;;16.40;9.32;;;;;;;;;;5147983;27;20134;-72
2022/07/04 04:41:56;;;;;;;15.85;9.93;;;;;;;;;;5147750;27;20049;-77
2022/07/04 04:44:22;;;;;;;15.38;9.00;;;;;;;;;;5150189;27;20126;-77
2022/07/04 04:46:48;;;;;;;20.13;10.05;;;;;;;;;;5146699;27;20118;-73
2022/07/04 04:49:15;;;;;;;16.40;10.00;;;;;;;;;;5112160;27;20072;-73
2022/07/04 04:51:41;;;;;;;19.60;10.45;;;;;;;;;;5147756;27;20102;-73
2022/07/04 04:54:07;;;;;;;18.10;9.68;;;;;;;;;;5149378;27;20047;-73
2022/07/04 04:56:33;;;;;;;19.45;9.10;;;;;;;;;;5149635;27;20076;-73
2022/07/04 04:58:59;;;;;;;19.38;9.48;;;;;;;;;;5145437;27;20042;-73
2022/07/04 05:01:25;;;;;;;18.15;9.88;;;;;;;;;;5122630;27;20031;-85
2022/07/04 05:03:51;;;;;;;18.85;8.75;;;;;;;;;;5133252;27;20035;-74
2022/07/04 05:06:18;;;;;;;17.85;9.18;;;;;;;;;;5147889;27;20035;-77
2022/07/04 05:08:44;;;;;;;16.10;8.80;;;;;;;;;;5116629;27;20360;-79
2022/07/04 05:11:10;;;;;;;;;;;;;;;;;;5149063;27;20057;-80
2022/07/04 05:13:36;;;;;;;16.42;8.77;;;;;;;;;;5147330;27;19930;-72
2022/07/04 05:16:02;;;;;;;16.80;9.10;;;;;;;;;;5147803;27;20085;-73
2022/07/04 05:18:28;;;;;;;17.10;9.07;;;;;;;;;;5145090;27;20044;-79
2022/07/04 05:20:54;;;;;;;15.55;9.18;;;;;;;;;;5135108;27;20041;-74
2022/07/04 05:23:20;;;;;;;;;;;;;;;;;;5142113;27;20037;-74
2022/07/04 05:25:47;;;;;;;19.10;9.77;;;;;;;;;;5137297;27;20007;-73
2022/07/04 05:28:13;;;;;;;19.60;10.30;;;;;;;;;;5138104;27;20117;-74
2022/07/04 05:30:40;;;;;;;22.58;9.50;;;;;;;;;;5121977;27;20458;-72
2022/07/04 05:33:06;;;;;;;17.83;9.98;;;;;;;;;;5145757;27;20420;-73
2022/07/04 05:35:32;;;;;;;19.73;9.93;;;;;;;;;;5132701;27;20159;-77
2022/07/04 05:37:58;;;;;;;23.92;10.73;;;;;;;;;;5129106;27;20126;-73
2022/07/04 05:40:24;;;;;;;;;;;;;;;;;;5129308;27;20453;-80
2022/07/04 05:42:50;;;;;;;20.00;9.90;;;;;;;;;;5144864;27;19922;-74
2022/07/04 05:45:16;;;;;;;21.05;10.20;;;;;;;;;;5133286;27;20343;-72
2022/07/04 05:47:44;;;;;;;17.48;10.02;;;;;;;;;;5143858;27;20038;-72
2022/07/04 05:50:10;;;;;;;20.67;10.05;;;;;;;;;;5140212;27;20038;-77
2022/07/04 05:52:36;;;;;;;;;;;;;;;;;;5147362;27;20111;-78
2022/07/04 05:55:02;;;;;;;18.17;9.55;;;;;;;;;;5143110;27;19998;-78
2022/07/04 05:57:29;;;;;;;17.80;9.63;;;;;;;;;;5135159;27;20474;-72
2022/07/04 05:59:55;;;;;;;17.35;9.85;;;;;;;;;;5120556;27;20462;-72
2022/07/04 06:02:21;;;;;;;18.33;9.27;;;;;;;;;;5141953;27;20434;-74
2022/07/04 06:04:47;;;;;;;18.83;9.27;;;;;;;;;;5133332;27;20066;-74
2022/07/04 06:07:13;;;;;;;19.95;9.50;;;;;;;;;;5137707;27;20039;-73
2022/07/04 06:09:39;;;;;;;16.98;9.18;;;;;;;;;;5133562;27;20362;-73
2022/07/04 06:12:05;;;;;;;18.63;8.88;;;;;;;;;;5145674;27;20042;-73
2022/07/04 06:14:32;;;;;;;18.58;9.63;;;;;;;;;;5135383;27;20039;-75
2022/07/04 06:16:58;;;;;;;19.15;8.77;;;;;;;;;;5145419;27;20137;-74
2022/07/04 06:19:24;;;;;;;17.98;8.23;;;;;;;;;;5139313;27;20051;-75
2022/07/04 06:21:50;;;;;;;19.02;8.15;;;;;;;;;;5150561;27;20038;-76
2022/07/04 06:24:16;;;;;;;16.15;7.70;;;;;;;;;;5152788;27;20346;-73
2022/07/04 06:26:42;;;;;;;20.13;8.20;;;;;;;;;;5150057;27;20058;-81
2022/07/04 06:29:08;;;;;;;17.85;6.97;;;;;;;;;;5152426;27;20043;-77
2022/07/04 06:31:34;;;;;;;18.92;6.60;;;;;;;;;;5132183;27;20050;-74
2022/07/04 06:36:45;;;;;;;18.42;6.28;;;;;;;;;;5148431;27;20057;-73
2022/07/04 06:39:11;;;;;;;;;;;;;;;;;;5148387;27;20047;-75
2022/07/04 06:41:37;;;;;;;18.92;6.35;;;;;;;;;;5137361;27;19915;-73
2022/07/04 06:44:04;;;;;;;17.85;6.00;;;;;;;;;;5149233;27;20438;-76
2022/07/04 06:46:30;;;;;;;14.20;5.80;;;;;;;;;;5146914;27;20051;-75
2022/07/04 06:48:56;;;;;;;15.73;6.45;;;;;;;;;;5132710;27;20065;-76
2022/07/04 06:51:23;;;;;;;14.35;5.57;;;;;;;;;;5151794;27;20126;-74
2022/07/04 06:53:49;;;;;;;16.58;7.18;;;;;;;;;;5138152;27;20055;-76
2022/07/04 06:56:15;;;;;;;16.13;5.95;;;;;;;;;;5146497;27;20035;-78
2022/07/04 06:58:41;;;;;;;21.02;6.75;;;;;;;;;;5147902;27;20450;-74
2022/07/04 07:01:07;;;;;;;15.85;6.43;;;;;;;;;;5144417;27;20045;-79
2022/07/04 07:03:33;;;;;;;19.63;6.63;;;;;;;;;;5143199;27;20028;-78
2022/07/04 07:05:59;;;;;;;15.43;6.20;;;;;;;;;;5112444;27;20388;-79
2022/07/04 07:08:26;;;;;;;16.15;5.93;;;;;;;;;;5149404;27;20034;-75
2022/07/04 07:10:52;;;;;;;15.75;6.15;;;;;;;;;;5151172;27;20397;-76
2022/07/04 07:13:18;;;;;;;18.75;6.25;;;;;;;;;;5148780;27;20148;-77
2022/07/04 07:15:44;;;;;;;14.13;5.70;;;;;;;;;;5139479;27;20072;-79
2022/07/04 07:18:10;;;;;;;16.45;5.97;;;;;;;;;;5139429;27;20171;-76
2022/07/04 07:20:36;;;;;;;;;;;;;;;;;;5137822;27;20047;-80
2022/07/04 07:23:03;;;;;;;16.85;5.05;;;;;;;;;;5139501;27;19915;-78
2022/07/04 07:25:30;;;;;;;13.07;5.40;;;;;;;;;;5147656;27;20038;-77
2022/07/04 07:27:56;;;;;;;16.52;5.55;;;;;;;;;;5139435;27;20142;-78
2022/07/04 07:30:22;;;;;;;17.60;6.68;;;;;;;;;;5150289;27;20049;-72
2022/07/04 07:32:48;;;;;;;11.38;5.00;;;;;;;;;;5143082;27;20541;-74
2022/07/04 07:35:14;;;;;;;13.93;5.70;;;;;;;;;;5121694;27;20035;-74
2022/07/04 07:37:41;;;;;;;15.43;5.60;;;;;;;;;;5131685;27;20386;-84
2022/07/04 07:40:07;;;;;;;15.27;5.78;;;;;;;;;;5130585;27;20046;-81
2022/07/04 07:42:34;;;;;;;17.00;5.50;;;;;;;;;;5149795;27;20038;-76
2022/07/04 07:45:00;;;;;;;;;;;;;;;;;;5132289;27;20049;-76
2022/07/04 07:47:26;;;;;;;12.88;5.47;;;;;;;;;;5150966;27;19919;-78
2022/07/04 07:49:52;;;;;;;15.68;5.78;;;;;;;;;;5148022;27;20049;-75
2022/07/04 07:52:18;;;;;;;15.38;6.15;;;;;;;;;;5146436;27;20107;-80
2022/07/04 07:54:44;;;;;;;;;;;;;;;;;;5149318;27;20042;-76
2022/07/04 07:57:10;;;;;;;16.10;5.07;;;;;;;;;;5151014;27;19925;-74
2022/07/04 07:59:36;;;;;;;16.50;5.70;;;;;;;;;;5132021;27;20312;-74
2022/07/04 08:02:02;;;;;;;10.90;5.30;;;;;;;;;;5150114;27;20050;-76
2022/07/04 08:04:34;;;;;;;;;;;;;;;;;;5130824;27;20365;-75
2022/07/04 08:07:02;;;;;;;13.43;4.85;;;;;;;;;;5150107;27;20380;-74
2022/07/04 08:09:28;;;;;;;19.00;5.40;;;;;;;;;;5148324;27;20053;-76
2022/07/04 08:11:54;;;;;;;;;;;;;;;;;;5151003;27;20050;-77
2022/07/04 08:14:20;;;;;;;15.93;5.88;;;;;;;;;;5131369;27;19990;-78
2022/07/04 08:16:46;;;;;;;19.75;6.88;;;;;;;;;;5150628;27;20134;-79
2022/07/04 08:19:12;;;;;;;16.05;6.20;;;;;;;;;;5129753;27;20042;-77
2022/07/04 08:21:38;;;;;;;17.27;6.30;;;;;;;;;;5150920;27;20039;-78
2022/07/04 08:24:04;;;;;;;14.88;6.53;;;;;;;;;;5150153;27;20201;-78
2022/07/04 08:26:30;;;;;;;;;;;;;;;;;;5150878;27;20043;-78
2022/07/04 08:28:57;;;;;;;18.00;7.25;;;;;;;;;;5150212;27;19938;-80
2022/07/04 08:31:24;;;;;;;18.20;6.57;;;;;;;;;;5147835;27;20087;-72
2022/07/04 08:33:52;;;;;;;12.65;5.00;;;;;;;;;;5150066;27;20120;-78
2022/07/04 08:36:18;;;;;;;13.02;4.75;;;;;;;;;;5131074;27;20051;-74
2022/07/04 08:38:44;;;;;;;17.00;5.20;;;;;;;;;;5149924;27;20445;-73
2022/07/04 08:41:12;;;;;;;13.30;4.50;;;;;;;;;;5147233;27;20438;-74
2022/07/04 08:43:38;;;;;;;10.15;3.92;;;;;;;;;;5149549;27;20091;-73
2022/07/04 08:46:05;;;;;;;12.32;4.55;;;;;;;;;;5145409;27;20065;-69
2022/07/04 08:48:32;;;;;;;12.48;3.60;;;;;;;;;;5147540;27;20125;-71
2022/07/04 08:51:04;;;;;;;12.00;3.92;;;;;;;;;;5150150;27;20043;-75
2022/07/04 08:53:31;;;;;;;9.85;3.55;;;;;;;;;;5146267;27;20134;-74
2022/07/04 08:58:45;;;;;;;10.60;3.35;;;;;;;;;;5149786;27;20381;-71
2022/07/04 09:01:15;;;;;;;11.02;2.95;;;;;;;;;;5149323;27;20045;-68
2022/07/04 09:03:42;;;;;;;9.32;2.95;;;;;;;;;;5131140;27;20099;-73
2022/07/04 09:06:09;;;;;;;8.63;2.60;;;;;;;;;;5148784;27;20038;-72
2022/07/04 09:08:35;;;;;;;8.32;2.60;;;;;;;;;;5147094;27;20038;-72
2022/07/04 09:11:01;;;;;;;;;;;;;;;;;;5149929;27;20311;-70
2022/07/04 09:13:27;;;;;;;12.35;2.70;;;;;;;;;;5147751;27;19914;-70
2022/07/04 09:15:53;;;;;;;7.40;2.55;;;;;;;;;;5149704;27;20039;-71
2022/07/04 09:18:20;;;;;;;7.25;2.50;;;;;;;;;;5130336;27;20118;-69
2022/07/04 09:20:46;;;;;;;11.93;2.67;;;;;;;;;;5149308;27;20116;-71
2022/07/04 09:23:12;;;;;;;;;;;;;;;;;;5148085;27;20074;-70
2022/07/04 09:25:38;;;;;;;7.00;2.40;;;;;;;;;;5144145;27;20033;-70
2022/07/04 09:28:04;;;;;;;9.50;2.38;;;;;;;;;;5147669;27;20163;-74
2022/07/04 09:30:30;;;;;;;12.02;2.40;;;;;;;;;;5137381;27;20053;-71
2022/07/04 09:33:00;;;;;;;;;;;;;;;;;;5143722;27;20150;-73
2022/07/04 09:35:27;;;;;;;6.82;2.47;;;;;;;;;;5132799;27;19967;-70
2022/07/04 09:38:00;;;;;;;9.13;3.17;;;;;;;;;;5145040;27;20066;-73
2022/07/04 09:40:27;;;;;;;7.95;2.28;;;;;;;;;;5146556;27;20434;-72
2022/07/04 09:42:55;;;;;;;8.68;2.30;;;;;;;;;;5121899;27;20049;-73
2022/07/04 09:45:23;;;;;;;6.75;2.28;;;;;;;;;;5145840;27;20051;-70
2022/07/04 09:47:50;;;;;;;8.88;2.45;;;;;;;;;;5147076;27;20456;-72
2022/07/04 09:50:20;;;;;;;8.23;2.50;;;;;;;;;;5145158;27;20046;-71
2022/07/04 09:52:54;;;;;;;7.40;2.50;;;;;;;;;;5147973;27;20077;-80
2022/07/04 09:55:25;;;;;;;11.23;2.92;;;;;;;;;;5144954;27;20359;-73
2022/07/04 09:57:51;;;;;;;9.43;2.53;;;;;;;;;;5148619;27;20111;-73
2022/07/04 10:00:18;;;;;;;10.65;2.60;;;;;;;;;;5142226;27;20065;-77
2022/07/04 10:02:44;;;;;;;8.15;2.60;;;;;;;;;;5146223;27;20051;-70
2022/07/04 10:05:11;;;;;;;8.98;2.50;;;;;;;;;;5148359;27;20047;-74
2022/07/04 10:07:37;;;;;;;;;;;;;;;;;;5143607;27;20043;-76
2022/07/04 10:10:44;;;;;;;12.70;2.72;;;;;;;;;;5147011;27;20307;-74
2022/07/04 10:13:11;;;;;;;9.15;2.50;;;;;;;;;;5040438;28;20064;-71
2022/07/04 10:15:38;;;;;;;6.88;2.35;;;;;;;;;;5043718;28;20049;-78
2022/07/04 10:18:05;;;;;;;10.07;2.42;;;;;;;;;;5076986;27;20168;-72
2022/07/04 10:20:31;;;;;;;7.57;2.65;;;;;;;;;;5129006;27;20122;-72
2022/07/04 10:22:58;;;;;;;7.43;2.40;;;;;;;;;;5125896;27;20107;-72
2022/07/04 10:25:24;;;;;;;9.80;2.53;;;;;;;;;;5146131;27;20042;-75
2022/07/04 10:27:51;;;;;;;;;;;;;;;;;;5146733;27;20061;-72
2022/07/04 10:30:21;;;;;;;8.32;2.70;;;;;;;;;;5146651;27;19915;-72
2022/07/04 10:32:48;;;;;;;8.40;2.30;;;;;;;;;;5145843;27;20041;-72
2022/07/04 10:35:15;;;;;;;7.40;2.20;;;;;;;;;;5146656;27;20342;-71
2022/07/04 10:38:00;;;;;;;6.75;2.30;;;;;;;;;;5148023;27;20039;-69
2022/07/04 10:40:43;;;;;;;8.18;2.40;;;;;;;;;;5143048;27;21168;-89
2022/07/04 10:43:33;;;;;;;6.68;2.20;;;;;;;;;;5123305;27;20172;-83
2022/07/04 10:46:06;;;;;;;8.20;2.70;;;;;;;;;;5124804;27;20105;-80
2022/07/04 10:48:33;;;;;;;9.02;2.75;;;;;;;;;;5135656;27;20115;-67
2022/07/04 10:51:08;;;;;;;5.03;1.92;;;;;;;;;;5139076;27;20043;-75
2022/07/04 10:53:54;;;;;;;6.72;1.98;;;;;;;;;;5134468;27;20142;-79
2022/07/04 10:56:20;;;;;;;8.50;2.05;;;;;;;;;;5132722;27;20392;-74
2022/07/04 10:58:46;;;;;;;8.48;2.15;;;;;;;;;;5132355;27;20444;-74
2022/07/04 11:01:12;;;;;;;7.47;2.53;;;;;;;;;;5140050;27;20346;-72
2022/07/04 11:03:49;;;;;;;6.85;2.40;;;;;;;;;;5147626;27;20744;-75
2022/07/04 11:06:31;;;;;;;6.70;2.40;;;;;;;;;;5148901;27;20042;-72
2022/07/04 11:09:15;;;;;;;7.53;2.22;;;;;;;;;;5133508;27;20523;-72
2022/07/04 11:11:56;;;;;;;8.25;2.30;;;;;;;;;;5146140;27;20041;-72
2022/07/04 11:14:32;;;;;;;8.32;2.20;;;;;;;;;;5130741;27;20039;-72
2022/07/04 11:16:58;;;;;;;10.48;2.50;;;;;;;;;;5131025;27;20115;-71
2022/07/04 11:19:24;;;;;;;7.93;2.28;;;;;;;;;;5145721;27;20034;-69
2022/07/04 11:21:50;;;;;;;6.47;2.20;;;;;;;;;;5151718;27;20090;-73
2022/07/04 11:24:16;;;;;;;;;;;;;;;;;;5145919;27;20066;-72
2022/07/04 11:26:42;;;;;;;5.65;1.80;;;;;;;;;;5151990;27;19973;-71
2022/07/04 11:29:08;;;;;;;8.02;1.95;;;;;;;;;;5149979;27;20375;-78
2022/07/04 11:31:35;;;;;;;5.82;2.05;;;;;;;;;;5150502;27;20062;-72
2022/07/04 11:34:01;;;;;;;11.02;2.20;;;;;;;;;;5151211;27;20066;-73
2022/07/04 11:36:27;;;;;;;;;;;;;;;;;;5116262;27;20119;-71
2022/07/04 11:39:00;;;;;;;6.88;1.90;;;;;;;;;;5149481;27;19974;-70
2022/07/04 11:47:09;;;;;;;9.93;2.27;;;;;;;;;;5147405;27;20187;-74
2022/07/04 11:49:36;;;;;;;9.30;2.38;;;;;;;;;;5150378;27;20455;-69
2022/07/04 11:52:02;;;;;;;7.32;1.95;;;;;;;;;;5150838;27;20051;-70
2022/07/04 11:54:28;;;;;;;3.88;1.60;;;;;;;;;;5148144;27;20054;-66
2022/07/04 11:57:08;;;;;;;5.82;1.92;;;;;;;;;;5151841;27;20039;-72
2022/07/04 11:59:35;;;;;;;4.63;1.67;;;;;;;;;;5149435;27;20406;-71
2022/07/04 12:02:00;;;;;;;;;;;;;;;;;;5097686;27;20115;-67
2022/07/04 12:04:26;;;;;;;6.95;1.85;;;;;;;;;;5144888;27;19958;-68
2022/07/04 12:06:53;;;;;;;7.68;1.80;;;;;;;;;;5151070;27;20054;-70
2022/07/04 12:09:18;;;;;;;;;;;;;;;;;;5139014;27;20069;-77
2022/07/04 12:11:55;;;;;;;7.57;1.83;;;;;;;;;;5143069;27;19946;-69
2022/07/04 12:14:21;;;;;;;6.43;2.00;;;;;;;;;;5149389;27;20546;-69
2022/07/04 12:16:47;;;;;;;6.28;1.80;;;;;;;;;;5149371;27;20094;-67
2022/07/04 12:19:13;;;;;;;;;;;;;;;;;;5150394;27;20041;-72
2022/07/04 12:21:39;;;;;;;6.05;1.90;;;;;;;;;;5144536;27;19915;-74
2022/07/04 12:24:05;;;;;;;6.80;2.00;;;;;;;;;;5138052;27;20458;-71
2022/07/04 12:26:32;;;;;;;7.68;1.90;;;;;;;;;;5148772;27;20070;-73
2022/07/04 12:28:58;;;;;;;8.48;2.30;;;;;;;;;;5149077;27;20034;-75
2022/07/04 12:31:24;;;;;;;;;;;;;;;;;;5145527;27;20079;-73
2022/07/04 12:33:56;;;;;;;4.97;1.83;;;;;;;;;;5150287;27;19925;-65
2022/07/04 12:36:22;;;;;;;10.20;2.10;;;;;;;;;;5147005;27;20050;-69
2022/07/04 12:38:48;;;;;;;;;;;;;;;;;;5148083;27;20469;-71
2022/07/04 12:41:19;;;;;;;11.00;2.15;;;;;;;;;;5140423;27;19925;-67
2022/07/04 12:43:51;;;;;;;5.72;2.03;;;;;;;;;;5148895;27;20500;-68
2022/07/04 12:46:36;;;;;;;8.10;2.95;;;;;;;;;;5149621;27;20042;-73
2022/07/04 12:49:03;;;;;;;8.40;2.38;;;;;;;;;;5149902;27;20089;-66
2022/07/04 12:51:30;;;;;;;7.90;2.03;;;;;;;;;;5143293;27;20035;-70
2022/07/04 12:53:57;;;;;;;8.90;2.28;;;;;;;;;;5143451;27;20085;-73
2022/07/04 12:56:30;;;;;;;9.98;2.90;;;;;;;;;;5148783;27;20558;-73
2022/07/04 12:58:56;;;;;;;11.75;2.50;;;;;;;;;;5145895;27;20472;-74
2022/07/04 13:01:22;;;;;;;;;;;;;;;;;;5140575;27;20042;-66
2022/07/04 13:03:48;;;;;;;7.57;2.20;;;;;;;;;;5128869;27;19953;-74
2022/07/04 13:06:14;;;;;;;;;;;;;;;;;;5129514;27;20084;-70
2022/07/04 13:08:40;;;;;;;7.78;2.00;;;;;;;;;;5116504;27;19931;-72
2022/07/04 13:13:51;;;;;;;5.68;2.03;;;;;;;;;;5147169;27;20370;-71
2022/07/04 13:16:17;;;;;;;;;;;;;;;;;;5128449;27;20069;-67
2022/07/04 13:18:43;;;;;;;6.95;1.90;;;;;;;;;;5148154;27;20366;-68
2022/07/04 13:21:09;;;;;;;6.45;1.83;;;;;;;;;;5149266;27;20042;-69
2022/07/04 13:23:35;;;;;;;7.18;2.00;;;;;;;;;;5149335;27;20115;-70
2022/07/04 13:26:02;;;;;;;8.40;1.90;;;;;;;;;;5149787;27;20211;-69
2022/07/04 13:28:28;;;;;;;;;;;;;;;;;;5131316;27;20049;-71
2022/07/04 13:30:54;;;;;;;5.30;1.70;;;;;;;;;;5148544;27;19915;-68
2022/07/04 13:33:20;;;;;;;5.82;1.67;;;;;;;;;;5149509;27;20335;-71
2022/07/04 13:35:46;;;;;;;7.00;1.67;;;;;;;;;;5149118;27;20178;-68
2022/07/04 13:38:14;;;;;;;5.30;1.70;;;;;;;;;;5149318;27;20042;-72
2022/07/04 13:40:42;;;;;;;4.80;1.70;;;;;;;;;;5149251;27;20043;-72
2022/07/04 13:43:11;;;;;;;6.50;1.77;;;;;;;;;;5149560;27;20042;-70
2022/07/04 13:45:42;;;;;;;8.18;2.22;;;;;;;;;;5149285;27;20074;-73
2022/07/04 13:48:09;;;;;;;4.65;1.65;;;;;;;;;;5149304;27;20053;-71
2022/07/04 13:50:37;;;;;;;5.88;1.85;;;;;;;;;;5149080;27;20045;-74
2022/07/04 13:53:03;;;;;;;5.55;1.60;;;;;;;;;;5148307;27;20107;-68
2022/07/04 13:55:30;;;;;;;6.20;1.83;;;;;;;;;;5149724;27;20049;-77
2022/07/04 13:57:56;;;;;;;6.10;1.80;;;;;;;;;;5148956;27;20135;-73
2022/07/04 14:00:22;;;;;;;;;;;;;;;;;;5149821;27;20042;-75
2022/07/04 14:02:48;;;;;;;5.78;1.60;;;;;;;;;;5149299;27;20263;-75
2022/07/04 14:05:14;;;;;;;;;;;;;;;;;;5150293;27;20045;-73
2022/07/04 14:07:40;;;;;;;6.82;1.80;;;;;;;;;;5146215;27;19923;-70
2022/07/04 14:10:06;;;;;;;4.97;1.73;;;;;;;;;;5146457;27;20605;-69
2022/07/04 14:12:32;;;;;;;8.95;2.03;;;;;;;;;;5144882;27;20058;-71
2022/07/04 14:14:59;;;;;;;;;;;;;;;;;;5144943;27;20049;-72
2022/07/04 14:17:25;;;;;;;4.78;1.60;;;;;;;;;;5143274;27;19979;-69
2022/07/04 14:19:51;;;;;;;;;;;;;;;;;;5143959;27;20034;-71
2022/07/04 14:22:17;;;;;;;5.88;1.90;;;;;;;;;;5127927;28;19984;-71
2022/07/04 14:24:43;;;;;;;;;;;;;;;;;;5143637;27;20042;-69
2022/07/04 14:27:09;;;;;;;8.38;1.80;;;;;;;;;;5148152;27;20012;-71
2022/07/04 14:29:35;;;;;;;;;;;;;;;;;;5143633;27;20030;-67
2022/07/04 14:32:01;;;;;;;6.18;1.63;;;;;;;;;;5147005;27;19915;-69
2022/07/04 14:34:27;;;;;;;8.80;1.73;;;;;;;;;;5144862;27;20125;-67
2022/07/04 14:36:53;;;;;;;;;;;;;;;;;;5148540;27;20137;-67
2022/07/04 14:39:19;;;;;;;4.72;1.50;;;;;;;;;;5147264;27;20277;-67
2022/07/04 14:41:48;;;;;;;6.78;1.80;;;;;;;;;;5151164;27;20085;-70
2022/07/04 14:44:14;;;;;;;4.95;1.90;;;;;;;;;;5150671;27;20106;-70
2022/07/04 14:46:40;;;;;;;;;;;;;;;;;;5151361;27;20050;-68
2022/07/04 14:49:06;;;;;;;9.10;2.10;;;;;;;;;;5142739;27;20287;-71
2022/07/04 14:51:32;;;;;;;6.10;1.50;;;;;;;;;;5152349;27;20030;-72
2022/07/04 14:53:58;;;;;;;;;;;;;;;;;;5121218;27;20041;-67
2022/07/04 14:56:24;;;;;;;3.90;1.60;;;;;;;;;;5140605;27;19922;-73
2022/07/04 14:58:50;;;;;;;;;;;;;;;;;;5145264;27;20057;-75
2022/07/04 15:01:16;;;;;;;7.38;1.52;;;;;;;;;;5137115;27;19915;-69
2022/07/04 15:03:42;;;;;;;;;;;;;;;;;;5127758;27;20086;-75
2022/07/04 15:06:08;;;;;;;7.57;1.80;;;;;;;;;;5149443;27;19958;-82
2022/07/04 15:08:34;;;;;;;6.25;1.58;;;;;;;;;;5138895;27;20463;-77